Time;durP1;ratioP1;P1;durP2;ratioP2;P2;SDS_P1;SDS_P2;PMS_P1;PMS_P2;Temp;Humidity;BMP_temperature;BMP_pressure;BME280_temperature;BME280_humidity;BME280_pressure;Samples;Min_cycle;Max_cycle;Signal;HPM_P1;HPM_P2
2023/03/13 05:38:50;;;;;;;;;;;;;;;-0.55;92.85;100703.30;110904;1250;25539;-48
2023/03/13 05:41:38;;;;;;;;;;;;;;;-0.46;92.52;100706.13;110883;1250;22541;-57
2023/03/13 05:44:16;;;;;;;;;;;;;;;-0.39;91.89;100714.55;112813;1250;22422;-45
2023/03/13 05:47:02;;;;;;;;;;;;;;;-0.30;91.61;100718.79;112794;1251;22371;-47
2023/03/13 05:49:39;;;;;;;;;;;;;;;-0.17;90.61;100724.38;112789;1251;23132;-48
2023/03/13 05:52:18;;;;;;;;;;;;;;;-0.06;90.47;100719.43;112613;1250;22461;-47
2023/03/13 05:55:08;;;;;;;;;;;;;;;0.05;89.91;100725.30;112821;1251;22394;-58
2023/03/13 05:58:03;;;;;;;;;;;;;;;0.18;89.67;100729.89;112383;1251;22530;-46
2023/03/13 06:00:44;;;;;;;;;;;;;;;0.31;89.82;100722.80;111565;1251;23116;-49
2023/03/13 06:03:35;;;;;;;;;;;;;;;0.42;89.63;100723.83;112591;1250;23040;-48
2023/03/13 06:06:02;;;;;;;;;;;;;;;0.48;89.11;100729.44;112557;1251;23608;-58
2023/03/13 06:08:47;;;;;;;;;;;;;;;0.54;88.73;100734.36;112494;1251;22944;-57
2023/03/13 06:11:13;;;;;;;;;;;;;;;0.64;88.98;100731.73;112520;1251;22375;-58
2023/03/13 06:13:40;;;;;;;;;;;;;;;0.77;88.99;100733.35;112584;1251;23282;-52
2023/03/13 06:16:41;;;;;;;;;;;;;;;0.94;88.37;100730.89;112563;1250;23239;-47
2023/03/13 06:19:15;;;;;;;;;;;;;;;1.06;87.23;100731.92;112370;1251;22839;-48
2023/03/13 06:21:49;;;;;;;;;;;;;;;1.09;86.46;100738.26;111923;1250;22482;-55
2023/03/13 06:24:16;;;;;;;;;;;;;;;1.08;86.41;100736.67;112293;1251;188388;-58
2023/03/13 06:26:43;;;;;;;;;;;;;;;1.07;86.95;100739.20;112249;1251;23162;-57
2023/03/13 06:29:17;;;;;;;;;;;;;;;1.08;86.52;100744.02;112281;1251;23350;-47
2023/03/13 06:32:05;;;;;;;;;;;;;;;1.12;86.72;100749.02;112112;1251;22542;-47
2023/03/13 06:34:39;;;;;;;;;;;;;;;1.20;87.11;100751.11;112450;1251;22528;-57
2023/03/13 06:37:29;;;;;;;;;;;;;;;1.32;86.52;100756.15;112417;1250;22566;-45
2023/03/13 06:39:55;;;;;;;;;;;;;;;1.44;85.83;100760.09;112462;1251;22383;-45
2023/03/13 06:42:22;;;;;;;;;;;;;;;1.54;85.42;100765.54;112522;1251;22911;-45
2023/03/13 06:44:49;;;;;;;;;;;;;;;1.63;84.87;100771.41;112397;1251;23264;-46
2023/03/13 06:47:16;;;;;;;;;;;;;;;1.72;84.23;100773.02;112565;1251;23263;-47
2023/03/13 06:49:44;;;;;;;;;;;;;;;1.83;82.52;100777.28;112595;1251;22862;-48
2023/03/13 06:52:11;;;;;;;;;;;;;;;1.95;80.84;100778.96;112145;1251;22524;-58
2023/03/13 06:54:41;;;;;;;;;;;;;;;2.05;80.10;100768.91;112407;1251;22542;-57
2023/03/13 06:57:14;;;;;;;;;;;;;;;2.17;78.97;100772.66;111543;1251;22508;-46
2023/03/13 06:59:41;;;;;;;;;;;;;;;2.25;77.18;100771.29;111136;1250;23048;-55
2023/03/13 07:02:25;;;;;;;;;;;;;;;2.30;75.68;100772.88;111641;1251;22490;-57
2023/03/13 07:04:58;;;;;;;;;;;;;;;2.37;75.61;100781.05;111527;1250;22527;-57
2023/03/13 07:07:26;;;;;;;;;;;;;;;2.44;74.55;100777.02;111977;1250;22463;-47
2023/03/13 07:10:02;;;;;;;;;;;;;;;2.53;72.54;100779.81;111921;1251;25288;-47
2023/03/13 07:12:33;;;;;;;;;;;;;;;2.61;70.70;100774.44;111876;1251;22513;-56
2023/03/13 07:15:00;;;;;;;;;;;;;;;2.69;69.62;100774.57;111198;1251;22547;-48
2023/03/13 07:17:45;;;;;;;;;;;;;;;2.79;66.74;100776.55;111474;1250;23336;-58
2023/03/13 07:20:18;;;;;;;;;;;;;;;2.90;62.09;100776.45;112233;1250;22628;-46
2023/03/13 07:22:52;;;;;;;;;;;;;;;2.99;60.95;100774.02;111867;1250;22997;-56
2023/03/13 07:25:25;;;;;;;;;;;;;;;3.08;60.22;100777.27;111758;1251;22584;-46
2023/03/13 07:27:55;;;;;;;;;;;;;;;3.16;59.63;100774.34;111633;1250;25398;-47
2023/03/13 07:30:34;;;;;;;;;;;;;;;3.27;56.83;100773.00;112401;1251;22856;-58
2023/03/13 07:33:02;;;;;;;;;;;;;;;3.34;54.04;100772.94;110826;1250;24827;-57
2023/03/13 07:35:29;;;;;;;;;;;;;;;3.42;53.76;100774.09;111527;1251;24183;-57
2023/03/13 07:38:08;;;;;;;;;;;;;;;3.52;53.35;100778.05;111956;1251;22520;-58
2023/03/13 07:40:50;;;;;;;;;;;;;;;3.62;53.72;100776.88;111569;1250;23657;-46
2023/03/13 07:43:25;;;;;;;;;;;;;;;3.71;52.72;100776.67;112044;1250;23291;-47
2023/03/13 07:45:56;;;;;;;;;;;;;;;3.80;52.92;100779.75;112307;1245;23340;-57
2023/03/13 07:48:40;;;;;;;;;;;;;;;3.88;50.37;100779.66;112156;1251;22530;-47
2023/03/13 07:51:37;;;;;;;;;;;;;;;3.85;49.65;100778.54;111485;1250;22538;-49
2023/03/13 07:55:06;;;;;;;;;;;;;;;3.81;50.36;100780.98;111275;1251;22510;-47
2023/03/13 07:58:16;;;;;;;;;;;;;;;3.85;50.16;100771.98;111779;1250;22689;-47
2023/03/13 08:00:50;;;;;;;;;;;;;;;3.89;50.91;100769.55;112377;1251;22510;-47
2023/03/13 08:03:38;;;;;;;;;;;;;;;3.91;50.36;100765.28;111907;1250;23098;-46
2023/03/13 08:09:59;;;;;;;;;;;;;;;4.04;51.10;100773.66;112215;1250;24688;-58
2023/03/13 08:16:33;;;;;;;;;;;;;;;4.31;50.81;100773.53;112064;1251;23437;-56
2023/03/13 08:19:17;;;;;;;;;;;;;;;4.39;50.32;100775.70;111703;1250;22479;-55
2023/03/13 08:21:45;;;;;;;;;;;;;;;4.45;49.38;100768.98;112446;1251;22387;-47
2023/03/13 08:24:13;;;;;;;;;;;;;;;4.53;48.90;100770.29;111921;1250;23230;-48
2023/03/13 08:26:48;;;;;;;;;;;;;;;4.62;49.05;100769.50;111420;1250;22452;-48
2023/03/13 08:29:16;;;;;;;;;;;;;;;4.66;49.02;100770.36;112284;1250;22376;-58
2023/03/13 08:31:50;;;;;;;;;;;;;;;4.72;48.45;100779.85;111856;1250;22989;-48
2023/03/13 08:34:21;;;;;;;;;;;;;;;4.74;48.38;100776.99;111832;1250;25312;-48
2023/03/13 08:36:52;;;;;;;;;;;;;;;4.83;48.08;100772.93;111932;1251;23329;-48
2023/03/13 08:39:19;;;;;;;;;;;;;;;4.94;47.72;100768.60;110990;1250;22562;-58
2023/03/13 08:41:51;;;;;;;;;;;;;;;5.06;46.41;100769.33;112033;1251;24268;-57
2023/03/13 08:44:20;;;;;;;;;;;;;;;5.12;46.52;100763.42;112292;1251;22607;-57
2023/03/13 08:46:51;;;;;;;;;;;;;;;5.19;47.05;100764.86;111140;1251;22539;-49
2023/03/13 08:49:18;;;;;;;;;;;;;;;5.28;46.23;100762.70;111998;1251;22525;-46
2023/03/13 08:51:47;;;;;;;;;;;;;;;5.30;45.98;100759.14;112425;1250;23375;-57
2023/03/13 08:54:17;;;;;;;;;;;;;;;5.29;46.99;100762.74;112235;1251;23285;-57
2023/03/13 08:56:47;;;;;;;;;;;;;;;5.35;48.01;100760.84;112260;1250;23128;-56
2023/03/13 08:59:17;;;;;;;;;;;;;;;5.45;48.46;100757.65;112442;1250;22679;-46
2023/03/13 09:01:43;;;;;;;;;;;;;;;5.52;48.28;100756.65;112447;1250;22451;-47
2023/03/13 09:04:11;;;;;;;;;;;;;;;5.50;47.95;100756.58;112293;1250;22605;-58
2023/03/13 09:06:41;;;;;;;;;;;;;;;5.46;48.46;100755.59;111471;1250;26802;-56
2023/03/13 09:09:10;;;;;;;;;;;;;;;5.51;48.55;100754.89;112273;1250;22609;-60
2023/03/13 09:11:41;;;;;;;;;;;;;;;5.62;48.42;100756.21;112158;1250;22394;-57
2023/03/13 09:14:08;;;;;;;;;;;;;;;5.76;48.09;100752.10;111490;1249;23668;-56
2023/03/13 09:16:37;;;;;;;;;;;;;;;5.79;47.72;100749.91;112042;1250;23674;-57
2023/03/13 09:19:11;;;;;;;;;;;;;;;5.76;47.66;100746.02;112333;1251;22376;-47
2023/03/13 09:21:57;;;;;;;;;;;;;;;5.71;47.18;100751.61;112502;1250;22383;-46
2023/03/13 09:24:31;;;;;;;;;;;;;;;5.66;47.77;100754.75;112525;1251;22375;-46
2023/03/13 09:27:02;;;;;;;;;;;;;;;5.64;47.18;100759.21;112161;1250;22495;-56
2023/03/13 09:29:42;;;;;;;;;;;;;;;5.60;47.19;100760.82;112538;1251;22418;-57
2023/03/13 09:32:09;;;;;;;;;;;;;;;5.57;46.57;100754.20;112417;1250;23164;-52
2023/03/13 09:34:40;;;;;;;;;;;;;;;5.57;46.35;100758.68;112501;1250;22854;-46
2023/03/13 09:37:07;;;;;;;;;;;;;;;5.59;45.93;100756.32;112658;1250;23160;-57
2023/03/13 09:39:39;;;;;;;;;;;;;;;5.63;47.21;100756.58;112228;1251;23726;-48
2023/03/13 09:42:05;;;;;;;;;;;;;;;5.72;47.75;100756.48;112635;1251;23150;-47
2023/03/13 09:44:39;;;;;;;;;;;;;;;5.88;47.84;100761.24;112540;1250;22437;-47
2023/03/13 09:47:09;;;;;;;;;;;;;;;6.00;46.56;100754.48;112241;1251;22412;-57
2023/03/13 09:49:44;;;;;;;;;;;;;;;6.06;46.32;100754.13;111720;1251;22476;-58
2023/03/13 09:52:22;;;;;;;;;;;;;;;6.07;46.49;100751.20;111717;1250;24382;-57
2023/03/13 09:55:03;;;;;;;;;;;;;;;6.06;46.43;100745.46;111714;1250;22524;-47
2023/03/13 09:57:50;;;;;;;;;;;;;;;6.07;46.81;100742.88;112347;1250;22957;-56
2023/03/13 10:00:30;;;;;;;;;;;;;;;6.05;46.57;100740.41;112535;1250;22841;-57
2023/03/13 10:03:49;;;;;;;;;;;;;;;6.06;47.73;100743.38;112449;1250;22429;-58
2023/03/13 10:07:31;;;;;;;;;;;;;;;6.09;47.59;100742.58;112370;1243;22987;-47
2023/03/13 10:10:16;;;;;;;;;;;;;;;6.14;46.82;100734.92;112292;1250;22499;-47
2023/03/13 10:13:06;;;;;;;;;;;;;;;6.13;46.53;100733.16;112526;1250;22408;-47
2023/03/13 10:15:41;;;;;;;;;;;;;;;6.14;46.84;100733.00;112613;1250;22397;-48
2023/03/13 10:18:11;;;;;;;;;;;;;;;6.19;45.44;100732.27;112385;1250;23351;-57
2023/03/13 10:20:38;;;;;;;;;;;;;;;6.29;44.53;100728.52;112596;1250;22428;-58
2023/03/13 10:23:06;;;;;;;;;;;;;;;6.49;44.28;100728.84;112355;1250;22491;-59
2023/03/13 10:25:34;;;;;;;;;;;;;;;6.73;45.15;100729.03;112227;1250;23131;-47
2023/03/13 10:28:04;;;;;;;;;;;;;;;6.99;45.05;100725.96;112310;1250;22676;-57
2023/03/13 10:30:35;;;;;;;;;;;;;;;7.29;43.49;100721.38;112353;1251;23039;-47
2023/03/13 10:33:06;;;;;;;;;;;;;;;7.56;42.45;100717.40;111896;1250;22462;-48
2023/03/13 10:35:36;;;;;;;;;;;;;;;7.89;42.74;100711.57;112273;1250;22634;-57
2023/03/13 10:38:07;;;;;;;;;;;;;;;8.42;42.06;100706.20;112352;1250;23209;-57
2023/03/13 10:40:35;;;;;;;;;;;;;;;8.88;42.05;100704.96;112384;1250;22381;-58
2023/03/13 10:43:14;;;;;;;;;;;;;;;9.39;41.25;100703.32;112304;1249;22508;-58
2023/03/13 10:45:57;;;;;;;;;;;;;;;9.85;40.21;100701.52;112278;1250;23216;-49
2023/03/13 10:51:24;;;;;;;;;;;;;;;10.59;39.36;100704.94;112356;1250;22416;-47
2023/03/13 10:54:29;;;;;;;;;;;;;;;10.99;37.24;100702.72;112449;1250;22387;-48
2023/03/13 10:57:27;;;;;;;;;;;;;;;11.22;35.51;100691.82;112531;1250;22413;-48
2023/03/13 11:00:06;;;;;;;;;;;;;;;11.38;34.84;100691.52;112598;1250;22353;-48
2023/03/13 11:02:37;;;;;;;;;;;;;;;11.42;35.34;100685.23;112556;1250;23096;-48
2023/03/13 11:05:22;;;;;;;;;;;;;;;11.64;35.31;100680.22;112606;1250;23045;-56
2023/03/13 11:07:49;;;;;;;;;;;;;;;11.92;34.86;100675.58;112667;1250;22364;-56
2023/03/13 11:10:25;;;;;;;;;;;;;;;12.06;35.25;100675.40;112668;1250;22524;-56
2023/03/13 11:12:53;;;;;;;;;;;;;;;12.35;36.44;100669.96;112431;1250;22541;-56
2023/03/13 11:15:40;;;;;;;;;;;;;;;12.84;35.09;100672.30;112341;1249;22519;-56
2023/03/13 11:18:28;;;;;;;;;;;;;;;13.09;33.57;100669.40;112647;1250;22369;-47
2023/03/13 11:20:54;;;;;;;;;;;;;;;13.20;33.81;100669.02;112447;1250;23223;-47
2023/03/13 11:23:28;;;;;;;;;;;;;;;13.35;32.26;100670.89;112372;1250;22588;-56
2023/03/13 11:26:13;;;;;;;;;;;;;;;13.39;32.74;100665.25;112425;1249;22360;-56
2023/03/13 11:28:44;;;;;;;;;;;;;;;13.53;30.88;100660.79;112361;1251;22402;-47
2023/03/13 11:31:11;;;;;;;;;;;;;;;13.40;31.27;100658.25;112473;1250;23659;-47
2023/03/13 11:33:46;;;;;;;;;;;;;;;13.33;31.36;100673.17;112493;1250;22914;-48
2023/03/13 11:36:13;;;;;;;;;;;;;;;13.22;30.96;100666.39;112451;1250;22990;-48
2023/03/13 11:38:41;;;;;;;;;;;;;;;13.22;30.87;100660.78;112584;1250;23320;-48
2023/03/13 11:41:19;;;;;;;;;;;;;;;13.19;30.50;100658.69;112399;1250;22381;-47
2023/03/13 11:43:49;;;;;;;;;;;;;;;13.02;30.67;100655.95;112453;1250;22379;-47
2023/03/13 11:46:24;;;;;;;;;;;;;;;12.83;30.90;100663.20;112306;1250;22410;-57
2023/03/13 11:48:57;;;;;;;;;;;;;;;12.50;31.31;100662.94;112294;1250;23212;-57
2023/03/13 11:51:30;;;;;;;;;;;;;;;12.08;32.14;100663.16;112479;1250;22373;-47
2023/03/13 11:53:57;;;;;;;;;;;;;;;11.58;33.19;100655.23;112630;1250;22413;-48
2023/03/13 11:56:26;;;;;;;;;;;;;;;11.25;33.28;100655.52;112663;1250;22384;-47
2023/03/13 11:58:53;;;;;;;;;;;;;;;10.96;33.56;100655.58;112642;1250;22755;-46
2023/03/13 12:01:20;;;;;;;;;;;;;;;10.82;34.13;100655.00;112645;1250;22391;-46
2023/03/13 12:03:53;;;;;;;;;;;;;;;10.68;34.00;100650.03;112613;1250;22379;-46
2023/03/13 12:06:25;;;;;;;;;;;;;;;10.54;35.56;100649.80;112510;1250;23511;-46
2023/03/13 12:08:57;;;;;;;;;;;;;;;10.55;36.29;100646.48;112504;1250;23023;-57
2023/03/13 12:11:25;;;;;;;;;;;;;;;10.54;36.84;100653.62;112645;1250;22848;-58
2023/03/13 12:14:02;;;;;;;;;;;;;;;10.48;36.79;100650.45;112067;1250;22466;-47
2023/03/13 12:16:50;;;;;;;;;;;;;;;10.42;37.08;100648.14;112739;1250;23097;-57
2023/03/13 12:19:20;;;;;;;;;;;;;;;10.32;35.97;100648.95;112828;1250;23611;-47
2023/03/13 12:21:51;;;;;;;;;;;;;;;10.22;36.34;100650.79;112086;1250;22463;-47
2023/03/13 12:24:29;;;;;;;;;;;;;;;10.22;36.46;100649.91;110584;1251;22491;-55
2023/03/13 12:26:58;;;;;;;;;;;;;;;10.25;37.35;100641.94;111349;1250;25201;-48
2023/03/13 12:29:31;;;;;;;;;;;;;;;10.32;37.74;100643.20;111215;1250;22498;-58
2023/03/13 12:32:00;;;;;;;;;;;;;;;10.30;37.67;100646.33;111676;1250;22532;-58
2023/03/13 12:34:36;;;;;;;;;;;;;;;10.16;35.83;100645.33;110964;1250;25453;-60
2023/03/13 12:37:09;;;;;;;;;;;;;;;9.87;36.10;100645.81;111114;1250;22465;-56
2023/03/13 12:39:46;;;;;;;;;;;;;;;9.71;37.24;100643.92;111017;1250;23828;-46
2023/03/13 12:42:22;;;;;;;;;;;;;;;9.89;37.12;100645.65;111038;1250;22565;-46
2023/03/13 12:44:49;;;;;;;;;;;;;;;10.20;35.93;100636.48;112414;1250;22475;-58
2023/03/13 12:47:32;;;;;;;;;;;;;;;10.50;36.31;100633.56;110595;1250;23633;-57
2023/03/13 12:50:02;;;;;;;;;;;;;;;10.78;35.60;100631.59;112114;1250;22929;-57
2023/03/13 12:52:41;;;;;;;;;;;;;;;10.77;35.56;100631.59;110751;1250;22574;-56
2023/03/13 12:55:21;;;;;;;;;;;;;;;10.61;35.28;100628.02;111356;1250;22501;-46
2023/03/13 12:57:48;;;;;;;;;;;;;;;10.65;34.09;100618.80;110792;1250;22504;-48
2023/03/13 13:00:17;;;;;;;;;;;;;;;10.73;35.04;100619.38;112048;1250;22506;-46
2023/03/13 13:02:44;;;;;;;;;;;;;;;10.56;36.24;100618.41;112680;1250;23165;-46
2023/03/13 13:05:16;;;;;;;;;;;;;;;10.29;36.65;100617.38;111790;1250;22694;-57
2023/03/13 13:07:43;;;;;;;;;;;;;;;10.35;35.94;100612.19;112408;1250;24331;-57
2023/03/13 13:10:17;;;;;;;;;;;;;;;10.64;35.45;100616.18;112498;1250;22527;-48
2023/03/13 13:12:46;;;;;;;;;;;;;;;10.62;35.56;100616.35;112694;1250;22492;-50
2023/03/13 13:15:18;;;;;;;;;;;;;;;10.34;35.69;100614.80;112815;1250;23084;-48
2023/03/13 13:17:49;;;;;;;;;;;;;;;10.18;37.13;100620.94;112288;1251;22478;-57
2023/03/13 13:20:35;;;;;;;;;;;;;;;10.35;36.67;100612.19;112310;1250;22496;-48
